Time;durP1;ratioP1;P1;durP2;ratioP2;P2;SDS_P1;SDS_P2;PMS_P1;PMS_P2;Temp;Humidity;BMP_temperature;BMP_pressure;BME280_temperature;BME280_humidity;BME280_pressure;Samples;Min_cycle;Max_cycle;Signal;HPM_P1;HPM_P2
2022/09/24 00:01:46;;;;;;;23.20;18.55;;;8.40;99.90;;;;;;4993973;28;20523;-86
2022/09/24 00:04:14;;;;;;;22.48;18.55;;;8.40;99.90;;;;;;4986326;28;20237;-85
2022/09/24 00:06:43;;;;;;;34.35;20.05;;;8.40;99.90;;;;;;4984853;28;20231;-84
2022/09/24 00:09:13;;;;;;;23.05;17.70;;;8.40;99.90;;;;;;4987562;28;20520;-86
2022/09/24 00:11:42;;;;;;;21.85;17.35;;;8.40;99.90;;;;;;4982995;28;20208;-86
2022/09/24 00:14:10;;;;;;;24.77;19.60;;;8.50;99.90;;;;;;4989548;28;20235;-90
2022/09/24 00:16:40;;;;;;;24.98;19.00;;;8.40;99.90;;;;;;4989608;28;20226;-86
2022/09/24 00:19:10;;;;;;;20.73;17.65;;;8.40;99.90;;;;;;4989228;28;20636;-83
2022/09/24 00:21:39;;;;;;;20.45;17.40;;;8.40;99.90;;;;;;4988487;28;20518;-81
2022/09/24 00:27:01;;;;;;;22.88;18.38;;;8.20;99.90;;;;;;4986542;28;20431;-83
2022/09/24 00:29:32;;;;;;;24.85;18.95;;;8.30;99.90;;;;;;4982664;28;20263;-84
2022/09/24 00:32:03;;;;;;;24.85;18.23;;;8.20;99.90;;;;;;4982171;28;20411;-86
2022/09/24 00:34:31;;;;;;;29.13;18.55;;;8.20;99.90;;;;;;4983964;28;20206;-86
2022/09/24 00:36:59;;;;;;;21.58;18.15;;;8.10;99.90;;;;;;4998939;28;20232;-87
2022/09/24 00:39:27;;;;;;;22.73;19.67;;;8.10;99.90;;;;;;4989660;28;20382;-84
2022/09/24 00:41:55;;;;;;;22.88;18.70;;;8.10;99.90;;;;;;4989297;28;20202;-84
2022/09/24 00:44:37;;;;;;;24.88;20.75;;;8.30;99.90;;;;;;4986617;28;20268;-84
2022/09/24 00:47:08;;;;;;;25.80;20.10;;;8.20;99.90;;;;;;4982600;28;20207;-88
2022/09/24 00:49:38;;;;;;;23.83;18.25;;;8.00;99.90;;;;;;4982414;28;20222;-88
2022/09/24 00:52:05;;;;;;;29.15;18.88;;;8.10;99.90;;;;;;4989396;28;20280;-85
2022/09/24 00:54:33;;;;;;;25.38;20.70;;;8.30;99.90;;;;;;4982865;28;20446;-86
2022/09/24 00:57:00;;;;;;;24.20;20.17;;;8.30;99.90;;;;;;4994870;28;20254;-83
2022/09/24 00:59:28;;;;;;;22.10;18.00;;;8.20;99.90;;;;;;5005300;28;20203;-84
2022/09/24 01:02:07;;;;;;;25.75;19.55;;;8.30;99.90;;;;;;4990819;28;20206;-84
2022/09/24 01:04:35;;;;;;;26.08;20.58;;;8.20;99.90;;;;;;4983155;28;20240;-86
2022/09/24 01:07:02;;;;;;;21.02;18.83;;;8.30;99.90;;;;;;4981616;28;20263;-84
2022/09/24 01:09:29;;;;;;;27.90;21.52;;;8.10;99.90;;;;;;4987779;28;20218;-81
2022/09/24 01:12:17;;;;;;;21.63;19.30;;;8.20;99.90;;;;;;4986745;28;20210;-84
2022/09/24 01:15:31;;;;;;;24.85;18.02;;;8.10;99.90;;;;;;4980917;28;20203;-82
2022/09/24 01:18:05;;;;;;;22.77;19.15;;;8.30;99.90;;;;;;4972721;28;20211;-86
2022/09/24 01:20:51;;;;;;;25.92;19.50;;;8.30;99.90;;;;;;4990941;28;20217;-83
2022/09/24 01:23:45;;;;;;;28.00;19.23;;;8.40;99.90;;;;;;4991679;28;20241;-84
2022/09/24 01:26:34;;;;;;;25.77;19.70;;;8.50;99.90;;;;;;4987064;28;20222;-83
2022/09/24 01:29:27;;;;;;;24.38;20.20;;;8.50;99.90;;;;;;4982096;28;20262;-83
2022/09/24 01:32:13;;;;;;;25.02;20.48;;;8.40;99.90;;;;;;4973513;28;20221;-83
2022/09/24 01:34:46;;;;;;;23.98;20.08;;;8.50;99.90;;;;;;4983295;28;20222;-83
2022/09/24 01:37:16;;;;;;;27.70;21.90;;;8.60;99.90;;;;;;5003201;28;20199;-83
2022/09/24 01:39:46;;;;;;;26.25;20.35;;;8.60;99.90;;;;;;4997075;28;20190;-82
2022/09/24 01:42:15;;;;;;;26.98;19.13;;;8.60;99.90;;;;;;4997173;28;20261;-84
2022/09/24 01:44:43;;;;;;;25.45;20.20;;;8.80;99.90;;;;;;5003475;28;20203;-83
2022/09/24 01:47:18;;;;;;;26.70;19.15;;;8.80;99.90;;;;;;4981701;28;20276;-85
2022/09/24 01:49:46;;;;;;;28.77;20.70;;;9.00;99.90;;;;;;4991922;28;20199;-82
2022/09/24 01:52:17;;;;;;;22.90;18.83;;;9.00;99.90;;;;;;4978805;28;20211;-82
2022/09/24 01:54:50;;;;;;;24.45;20.25;;;9.10;99.90;;;;;;4995382;28;20231;-83
2022/09/24 01:57:21;;;;;;;20.80;18.55;;;9.20;99.90;;;;;;4991076;28;20210;-82
2022/09/24 01:59:58;;;;;;;25.85;19.35;;;9.10;99.90;;;;;;4977530;28;20711;-83
2022/09/24 02:02:44;;;;;;;23.63;17.63;;;9.20;99.90;;;;;;4982143;28;20242;-83
2022/09/24 02:05:24;;;;;;;21.60;18.20;;;9.10;99.90;;;;;;4979760;28;20208;-84
2022/09/24 02:07:57;;;;;;;22.13;17.65;;;9.40;99.90;;;;;;4973756;28;20396;-84
2022/09/24 02:10:29;;;;;;;20.13;15.63;;;9.40;99.90;;;;;;4983221;28;20333;-86
2022/09/24 02:13:02;;;;;;;20.67;16.55;;;9.40;99.90;;;;;;4987336;28;20230;-85
2022/09/24 02:15:33;;;;;;;19.15;16.65;;;9.50;99.90;;;;;;4989004;28;20431;-84
2022/09/24 02:18:05;;;;;;;19.55;15.93;;;9.30;99.90;;;;;;4984325;28;20188;-86
2022/09/24 02:20:34;;;;;;;19.85;15.88;;;9.30;99.90;;;;;;4986561;28;20200;-88
2022/09/24 02:23:05;;;;;;;21.00;15.45;;;9.30;99.90;;;;;;4987943;28;20437;-86
2022/09/24 02:25:49;;;;;;;20.63;15.60;;;9.20;99.90;;;;;;4995580;28;20204;-86
2022/09/24 02:28:19;;;;;;;24.55;16.38;;;9.00;99.90;;;;;;4978017;28;20217;-83
2022/09/24 02:30:52;;;;;;;20.85;16.10;;;9.00;99.90;;;;;;4995384;28;20232;-86
2022/09/24 02:36:10;;;;;;;24.48;16.60;;;9.10;99.90;;;;;;5010137;28;20191;-84
2022/09/24 02:38:38;;;;;;;20.75;16.45;;;9.30;99.90;;;;;;5009522;28;20202;-86
2022/09/24 02:41:07;;;;;;;21.45;16.80;;;9.40;99.90;;;;;;4995915;28;20219;-85
2022/09/24 02:43:35;;;;;;;20.83;17.05;;;9.20;99.90;;;;;;4984473;28;20218;-85
2022/09/24 02:46:04;;;;;;;19.45;15.35;;;9.10;99.90;;;;;;4995921;28;20622;-85
2022/09/24 02:48:32;;;;;;;25.17;16.17;;;9.10;99.90;;;;;;4993357;28;20208;-84
2022/09/24 02:51:00;;;;;;;20.75;15.82;;;9.20;99.90;;;;;;4983718;28;20261;-84
2022/09/24 02:53:27;;;;;;;21.60;15.98;;;8.90;99.90;;;;;;4984251;28;20220;-84
2022/09/24 02:55:54;;;;;;;21.98;16.38;;;8.80;99.90;;;;;;4991915;28;20212;-87
2022/09/24 02:58:21;;;;;;;21.40;15.38;;;8.80;99.90;;;;;;4991370;28;20211;-83
2022/09/24 03:00:49;;;;;;;23.23;15.98;;;8.80;99.90;;;;;;4995548;28;20386;-85
2022/09/24 03:03:16;;;;;;;16.80;15.10;;;8.70;99.90;;;;;;4990614;28;20724;-84
2022/09/24 03:05:43;;;;;;;17.33;15.40;;;9.00;99.90;;;;;;4986785;28;20220;-85
2022/09/24 03:08:10;;;;;;;18.88;16.88;;;8.90;99.90;;;;;;4987359;28;20220;-85
2022/09/24 03:10:44;;;;;;;20.23;17.15;;;8.70;99.90;;;;;;4994864;28;20206;-85
2022/09/24 03:13:13;;;;;;;20.38;16.38;;;8.90;99.90;;;;;;4972894;28;20272;-90
2022/09/24 03:21:07;;;;;;;19.80;16.33;;;9.20;99.90;;;;;;5551226;23;20463;-90
2022/09/24 03:23:37;;;;;;;18.17;16.23;;;9.20;99.90;;;;;;5104916;23;20299;-88
2022/09/24 03:26:07;;;;;;;23.65;16.25;;;9.30;99.90;;;;;;5150972;22;20306;-85
2022/09/24 03:28:35;;;;;;;19.63;15.95;;;9.20;99.90;;;;;;4984342;28;20197;-87
2022/09/24 03:31:06;;;;;;;16.42;14.52;;;9.10;99.90;;;;;;4986499;28;20240;-88
2022/09/24 03:33:45;;;;;;;19.33;15.23;;;9.00;99.90;;;;;;4988249;28;20573;-88
2022/09/24 03:36:24;;;;;;;18.92;15.43;;;8.90;99.90;;;;;;4987544;28;20204;-90
2022/09/24 03:38:55;;;;;;;23.52;15.25;;;9.10;99.90;;;;;;4975068;28;20506;-88
2022/09/24 03:41:26;;;;;;;20.52;15.70;;;9.10;99.90;;;;;;4991131;28;20539;-87
2022/09/24 03:43:54;;;;;;;19.58;14.07;;;9.30;99.90;;;;;;4999578;28;20200;-86
2022/09/24 03:46:28;;;;;;;17.42;15.38;;;9.20;99.90;;;;;;4999204;28;20181;-85
2022/09/24 03:48:58;;;;;;;19.75;16.08;;;9.00;99.90;;;;;;5003416;28;20195;-85
2022/09/24 03:51:25;;;;;;;19.10;16.05;;;9.00;99.90;;;;;;5018676;28;20183;-85
2022/09/24 03:53:52;;;;;;;17.42;14.80;;;9.00;99.90;;;;;;5176124;23;20239;-89
2022/09/24 03:56:20;;;;;;;20.13;14.98;;;8.90;99.90;;;;;;5015308;28;20422;-86
2022/09/24 03:58:51;;;;;;;16.80;14.93;;;9.00;99.90;;;;;;4994397;28;20192;-86
2022/09/24 04:01:20;;;;;;;18.33;14.95;;;9.00;99.90;;;;;;4995770;28;20245;-82
2022/09/24 04:03:49;;;;;;;18.02;14.70;;;9.00;99.90;;;;;;4991836;28;20268;-85
2022/09/24 04:06:18;;;;;;;19.63;15.40;;;8.80;99.90;;;;;;4995824;28;20239;-87
2022/09/24 04:08:51;;;;;;;20.50;14.57;;;8.90;99.90;;;;;;4996483;28;20267;-83
2022/09/24 04:11:19;;;;;;;23.17;15.60;;;8.90;99.90;;;;;;4992410;28;20246;-84
2022/09/24 04:13:46;;;;;;;16.63;14.18;;;8.90;99.90;;;;;;4984897;28;20534;-86
2022/09/24 04:16:16;;;;;;;17.85;15.20;;;8.90;99.90;;;;;;4997489;28;20180;-84
2022/09/24 04:18:43;;;;;;;19.38;15.07;;;9.00;99.90;;;;;;5000211;28;20226;-84
2022/09/24 04:21:13;;;;;;;15.15;13.55;;;9.10;99.90;;;;;;4980794;28;20204;-84
2022/09/24 04:23:41;;;;;;;15.00;13.40;;;9.00;99.90;;;;;;4997157;28;20713;-84
2022/09/24 04:26:09;;;;;;;16.33;13.95;;;9.00;99.90;;;;;;4984120;28;20278;-86
2022/09/24 04:28:36;;;;;;;20.05;15.02;;;9.10;99.90;;;;;;4981132;28;20450;-85
2022/09/24 04:31:03;;;;;;;17.95;15.43;;;8.70;99.90;;;;;;4984349;28;20239;-85
2022/09/24 04:33:32;;;;;;;17.83;14.57;;;8.50;99.90;;;;;;4988674;28;20235;-83
2022/09/24 04:36:00;;;;;;;17.60;15.15;;;8.70;99.90;;;;;;4986656;28;20797;-85
2022/09/24 04:38:30;;;;;;;19.60;14.93;;;8.60;99.90;;;;;;4994721;28;20191;-83
2022/09/24 04:41:05;;;;;;;16.25;13.30;;;8.70;99.90;;;;;;4998581;28;20219;-82
2022/09/24 04:43:33;;;;;;;15.60;13.90;;;8.80;99.90;;;;;;4987005;28;20208;-83
2022/09/24 04:46:13;;;;;;;17.60;14.85;;;8.70;99.90;;;;;;4984898;28;20647;-85
2022/09/24 04:48:45;;;;;;;17.35;14.27;;;8.50;99.90;;;;;;4988568;28;20307;-88
2022/09/24 04:51:13;;;;;;;19.05;13.43;;;8.50;99.90;;;;;;4992923;28;20545;-85
2022/09/24 04:53:44;;;;;;;18.73;15.55;;;8.70;99.90;;;;;;4989229;28;20337;-84
2022/09/24 04:56:13;;;;;;;15.88;14.27;;;8.70;99.90;;;;;;4988320;28;20546;-85
2022/09/24 04:58:40;;;;;;;18.63;14.25;;;8.80;99.90;;;;;;4986461;28;20216;-84
2022/09/24 05:01:08;;;;;;;19.92;14.68;;;8.90;99.90;;;;;;4993325;28;20254;-82
2022/09/24 05:03:35;;;;;;;15.95;13.60;;;9.00;99.90;;;;;;4981574;28;20518;-84
2022/09/24 05:06:03;;;;;;;21.20;15.40;;;9.00;99.90;;;;;;4981352;28;20219;-87
2022/09/24 05:08:30;;;;;;;18.33;13.40;;;9.20;99.90;;;;;;5003476;28;20240;-85
2022/09/24 05:11:00;;;;;;;17.45;13.48;;;9.30;99.90;;;;;;5000403;28;20202;-88
2022/09/24 05:13:31;;;;;;;15.85;14.23;;;9.40;99.90;;;;;;4997111;28;20369;-88
2022/09/24 05:24:01;;;;;;;19.08;13.05;;;9.70;99.90;;;;;;5046362;23;20252;-86
2022/09/24 05:31:49;;;;;;;13.65;12.25;;;9.90;99.90;;;;;;5762727;23;21275;-84
2022/09/24 05:34:20;;;;;;;17.35;13.45;;;9.90;99.90;;;;;;4963238;28;20237;-87
2022/09/24 05:36:55;;;;;;;14.50;11.80;;;10.00;99.90;;;;;;5020230;23;20184;31
2022/09/24 05:39:22;;;;;;;17.75;10.57;;;10.00;99.90;;;;;;5213224;23;20251;-89
2022/09/24 05:41:50;;;;;;;13.63;11.70;;;9.90;99.90;;;;;;5129353;23;20420;-89
2022/09/24 05:44:20;;;;;;;13.32;11.95;;;9.80;99.90;;;;;;4979201;28;20216;-87
2022/09/24 05:46:48;;;;;;;16.27;12.20;;;9.80;99.90;;;;;;4990497;28;20704;-87
2022/09/24 05:49:15;;;;;;;16.15;12.13;;;10.20;99.90;;;;;;5109560;23;20243;-84
2022/09/24 05:51:49;;;;;;;14.82;12.38;;;10.10;99.90;;;;;;5021604;28;20648;-89
2022/09/24 05:56:52;;;;;;;15.20;11.93;;;9.80;99.90;;;;;;5168912;23;20233;-88
2022/09/24 05:59:21;;;;;;;11.57;10.48;;;10.00;99.90;;;;;;4969070;28;20244;-84
2022/09/24 06:01:50;;;;;;;15.60;10.30;;;10.20;99.90;;;;;;5261072;23;20256;-88
2022/09/24 06:04:19;;;;;;;14.07;10.73;;;10.20;99.90;;;;;;4980173;28;20201;-83
2022/09/24 06:06:46;;;;;;;12.75;10.48;;;10.40;99.90;;;;;;4982937;28;20248;-86
2022/09/24 06:09:13;;;;;;;13.93;10.10;;;10.50;99.90;;;;;;4982962;28;20448;-88
2022/09/24 06:11:42;;;;;;;12.93;8.38;;;10.40;99.90;;;;;;4987140;28;20201;-88
2022/09/24 06:14:10;;;;;;;14.85;10.35;;;10.40;99.90;;;;;;4985404;28;20213;-87
2022/09/24 06:16:38;;;;;;;9.90;7.75;;;10.60;99.90;;;;;;4982762;28;20205;-88
2022/09/24 06:19:07;;;;;;;8.43;7.28;;;10.80;99.90;;;;;;4988194;28;20225;-85
2022/09/24 06:21:34;;;;;;;10.90;9.65;;;10.90;99.90;;;;;;4985774;28;20220;-85
2022/09/24 06:24:01;;;;;;;11.00;8.13;;;10.90;99.90;;;;;;4984887;28;20216;-85
2022/09/24 06:26:31;;;;;;;10.60;7.88;;;11.10;99.90;;;;;;4984268;28;20216;-85
2022/09/24 06:28:59;;;;;;;8.30;7.35;;;11.30;99.90;;;;;;4981794;28;20190;-86
2022/09/24 06:31:31;;;;;;;10.85;7.68;;;11.20;99.90;;;;;;4991478;28;20189;-83
2022/09/24 06:33:59;;;;;;;9.85;7.57;;;11.50;99.90;;;;;;4991794;28;20303;-85
2022/09/24 06:36:26;;;;;;;9.18;7.80;;;11.70;99.90;;;;;;4992345;28;20214;-87
2022/09/24 06:38:54;;;;;;;6.90;6.30;;;11.70;99.90;;;;;;4995473;28;20252;-86
2022/09/24 06:41:22;;;;;;;9.82;7.57;;;11.70;99.90;;;;;;4993032;28;20267;-84
2022/09/24 06:43:55;;;;;;;10.95;7.30;;;11.50;99.90;;;;;;4982863;28;20301;-87
2022/09/24 06:46:24;;;;;;;8.07;6.60;;;11.70;99.90;;;;;;4999012;28;20201;-88
2022/09/24 06:48:55;;;;;;;9.45;7.10;;;11.80;99.90;;;;;;4994727;28;20265;-85
2022/09/24 06:51:26;;;;;;;6.35;5.75;;;11.90;99.90;;;;;;4994869;28;20197;-86
2022/09/24 06:53:56;;;;;;;7.18;6.03;;;12.10;99.90;;;;;;4989810;28;20222;-85
2022/09/24 06:56:26;;;;;;;8.43;6.47;;;12.20;99.90;;;;;;4993173;28;20225;-85
2022/09/24 06:58:55;;;;;;;10.90;6.63;;;12.40;99.90;;;;;;4987038;28;20289;-88
2022/09/24 07:01:22;;;;;;;7.10;5.45;;;12.40;99.90;;;;;;4988643;28;20226;-83
2022/09/24 07:03:50;;;;;;;9.60;6.35;;;12.50;99.90;;;;;;4984021;28;20214;-86
2022/09/24 07:06:17;;;;;;;5.35;4.85;;;12.70;99.90;;;;;;4982747;28;20424;-87
2022/09/24 07:08:50;;;;;;;9.30;6.00;;;12.80;99.90;;;;;;5061972;23;20239;-86
2022/09/24 07:11:20;;;;;;;5.97;5.47;;;13.10;99.90;;;;;;4944181;29;20286;-84
2022/09/24 07:13:47;;;;;;;5.95;4.78;;;13.50;99.90;;;;;;4950102;29;20207;-85
2022/09/24 07:16:19;;;;;;;6.90;5.85;;;13.70;99.90;;;;;;4951935;29;20213;-86
2022/09/24 07:18:49;;;;;;;6.93;5.60;;;13.90;99.90;;;;;;4937165;29;20227;-90
2022/09/24 07:21:18;;;;;;;6.18;5.47;;;13.90;99.90;;;;;;4943641;29;20567;-88
2022/09/24 07:23:48;;;;;;;5.78;4.80;;;14.00;99.90;;;;;;4945949;29;20253;-87
2022/09/24 07:26:24;;;;;;;5.93;5.10;;;14.00;99.90;;;;;;4947464;29;20255;-88
2022/09/24 07:28:52;;;;;;;8.88;5.63;;;14.20;99.90;;;;;;4946319;29;20219;-89
2022/09/24 07:31:19;;;;;;;6.57;5.88;;;14.50;99.90;;;;;;4939828;29;20222;-86
2022/09/24 07:33:48;;;;;;;6.25;5.57;;;14.80;99.90;;;;;;4947234;29;20201;-85
2022/09/24 07:36:15;;;;;;;6.97;5.70;;;14.80;99.90;;;;;;4942135;29;20225;-88
2022/09/24 07:38:45;;;;;;;6.78;5.28;;;14.80;99.90;;;;;;4949043;29;20242;-86
2022/09/24 07:41:14;;;;;;;8.50;7.03;;;14.90;99.90;;;;;;4943301;29;20212;-89
2022/09/24 07:43:43;;;;;;;6.47;5.60;;;15.20;99.90;;;;;;4948516;29;20251;-87
2022/09/24 07:46:11;;;;;;;9.32;7.10;;;15.70;99.90;;;;;;4940004;29;20206;-87
2022/09/24 07:48:41;;;;;;;5.70;4.73;;;16.10;99.90;;;;;;4941926;29;20218;-89
2022/09/24 07:51:10;;;;;;;4.57;4.17;;;16.10;99.90;;;;;;4944899;29;20449;-87
2022/09/24 07:53:39;;;;;;;11.80;4.70;;;16.30;99.90;;;;;;4937368;29;20446;-87
2022/09/24 07:56:07;;;;;;;5.80;4.90;;;16.10;99.90;;;;;;4953387;29;20491;-87
2022/09/24 07:58:38;;;;;;;5.60;4.10;;;16.20;99.90;;;;;;4944236;29;20476;-87
2022/09/24 08:01:09;;;;;;;8.17;5.80;;;16.40;99.90;;;;;;4946459;29;20440;-85
2022/09/24 08:03:42;;;;;;;9.30;4.70;;;16.30;99.90;;;;;;4948997;28;20516;-87
2022/09/24 08:06:11;;;;;;;6.80;4.47;;;16.20;99.90;;;;;;4941716;29;20446;-88
2022/09/24 08:08:40;;;;;;;5.40;4.90;;;16.40;99.90;;;;;;4951364;28;20436;-89
2022/09/24 08:11:12;;;;;;;7.53;5.30;;;16.90;99.90;;;;;;4950989;29;20461;-88
2022/09/24 08:13:40;;;;;;;4.40;4.00;;;17.70;99.90;;;;;;4947918;29;20469;-84
2022/09/24 08:16:07;;;;;;;4.70;4.30;;;18.70;99.90;;;;;;4940185;29;20486;-88
2022/09/24 08:18:36;;;;;;;6.00;4.83;;;19.50;99.90;;;;;;4949546;29;20466;-87
2022/09/24 08:21:12;;;;;;;7.00;4.30;;;20.10;99.90;;;;;;4944874;28;20497;-88
2022/09/24 08:23:39;;;;;;;4.73;3.60;;;20.60;99.90;;;;;;4950576;28;20428;-89
2022/09/24 08:26:07;;;;;;;5.93;4.50;;;20.80;99.90;;;;;;4948671;29;20480;-86
2022/09/24 08:28:36;;;;;;;11.20;5.50;;;20.30;99.90;;;;;;4949336;28;20458;-84
2022/09/24 08:31:07;;;;;;;5.07;4.50;;;20.00;99.90;;;;;;4943828;29;20426;-87
2022/09/24 08:33:36;;;;;;;3.93;3.40;;;19.50;99.90;;;;;;4945307;29;20440;-87
2022/09/24 08:36:06;;;;;;;8.00;4.90;;;19.50;99.90;;;;;;4944533;29;20457;-86
2022/09/24 08:38:33;;;;;;;5.13;4.20;;;19.70;99.90;;;;;;4943500;29;20430;-86
2022/09/24 08:41:12;;;;;;;4.00;3.63;;;19.80;99.90;;;;;;4956655;28;20463;-86
2022/09/24 08:43:52;;;;;;;3.47;3.17;;;19.80;99.90;;;;;;4944393;28;20756;-85
2022/09/24 08:49:19;;;;;;;4.97;4.27;;;20.00;99.90;;;;;;4942007;29;20425;-88
2022/09/24 08:52:05;;;;;;;4.43;3.90;;;20.70;99.90;;;;;;4942871;29;20466;-84
2022/09/24 08:54:35;;;;;;;4.97;3.60;;;20.60;99.90;;;;;;4936787;29;20491;-86
2022/09/24 08:57:16;;;;;;;4.57;4.20;;;20.00;99.90;;;;;;4944314;29;20481;-89
2022/09/24 08:59:49;;;;;;;4.50;3.90;;;20.10;99.90;;;;;;4956694;29;20442;-84
2022/09/24 09:02:37;;;;;;;4.50;4.10;;;20.30;99.90;;;;;;4939610;29;20711;-89
2022/09/24 09:05:19;;;;;;;3.67;3.37;;;20.00;99.90;;;;;;4937656;29;20504;-87
2022/09/24 09:08:04;;;;;;;4.70;3.27;;;20.20;99.90;;;;;;4939819;29;20819;-85
2022/09/24 09:10:58;;;;;;;4.50;3.23;;;20.50;99.90;;;;;;4932923;29;20439;-87
2022/09/24 09:13:38;;;;;;;7.80;3.90;;;21.50;99.90;;;;;;4937729;29;20496;-88
2022/09/24 09:16:26;;;;;;;5.50;3.57;;;21.40;99.90;;;;;;4949624;29;20441;-86
2022/09/24 09:19:03;;;;;;;3.83;3.17;;;21.90;99.90;;;;;;4949850;29;20453;-87
2022/09/24 09:21:40;;;;;;;3.27;3.03;;;20.80;99.90;;;;;;4949589;29;20419;-84
2022/09/24 09:24:24;;;;;;;3.40;3.20;;;20.50;99.90;;;;;;4936309;29;20482;-88
2022/09/24 09:26:56;;;;;;;3.57;3.27;;;20.30;99.90;;;;;;4936631;29;20505;-86
2022/09/24 09:29:26;;;;;;;3.17;2.90;;;20.20;99.90;;;;;;4944748;29;20433;-86
2022/09/24 09:32:18;;;;;;;9.40;4.73;;;19.60;99.90;;;;;;4937879;29;20503;-86
2022/09/24 09:35:15;;;;;;;3.93;3.33;;;19.50;99.90;;;;;;4942170;29;20503;-87
2022/09/24 09:37:54;;;;;;;3.70;3.40;;;19.60;99.90;;;;;;4940653;29;20749;-87
2022/09/24 09:40:27;;;;;;;3.67;3.03;;;19.70;99.90;;;;;;4946125;29;20408;-85
2022/09/24 09:43:01;;;;;;;4.07;3.00;;;19.50;99.90;;;;;;4954942;29;20769;-88
2022/09/24 09:45:33;;;;;;;2.53;2.33;;;19.20;99.90;;;;;;4935215;29;20478;-87
2022/09/24 09:48:02;;;;;;;2.90;2.70;;;19.00;99.90;;;;;;4944256;29;20469;-87
2022/09/24 09:50:41;;;;;;;3.70;3.40;;;19.10;99.90;;;;;;4942883;29;20464;-87
2022/09/24 09:53:19;;;;;;;3.23;2.93;;;19.00;99.90;;;;;;4940377;29;20456;-86
2022/09/24 09:55:56;;;;;;;3.57;2.80;;;19.10;99.90;;;;;;4940121;28;20532;-85
2022/09/24 09:58:34;;;;;;;3.10;2.60;;;19.20;99.90;;;;;;4939903;29;20421;-83
2022/09/24 10:01:07;;;;;;;3.40;3.10;;;19.30;99.90;;;;;;4933888;29;20446;-83
2022/09/24 10:03:43;;;;;;;4.70;3.00;;;19.20;99.90;;;;;;4962734;29;20438;-83
2022/09/24 10:06:12;;;;;;;3.73;2.83;;;19.10;99.90;;;;;;4963710;29;20526;-84
2022/09/24 10:08:40;;;;;;;4.20;3.73;;;19.10;99.90;;;;;;4957062;29;20431;-80
2022/09/24 10:11:15;;;;;;;3.00;2.70;;;19.10;99.90;;;;;;4955485;28;20516;-86
2022/09/24 10:13:44;;;;;;;3.20;2.90;;;18.90;99.90;;;;;;4943302;29;20444;-86
2022/09/24 10:16:14;;;;;;;2.90;2.70;;;18.80;99.90;;;;;;4940929;29;20798;-85
2022/09/24 10:18:51;;;;;;;4.13;3.00;;;19.00;99.90;;;;;;4939891;29;20438;-84
2022/09/24 10:21:36;;;;;;;3.67;3.30;;;19.40;99.90;;;;;;4940671;29;20618;-84
2022/09/24 10:24:07;;;;;;;4.23;3.33;;;19.80;99.90;;;;;;4940973;29;20596;-84
2022/09/24 10:26:36;;;;;;;3.50;3.20;;;20.10;99.90;;;;;;4937777;29;20454;-84
2022/09/24 10:32:24;;;;;;;3.80;3.00;;;20.00;99.90;;;;;;4946569;29;20439;-82
2022/09/24 10:34:55;;;;;;;4.20;3.13;;;20.10;99.90;;;;;;4939708;29;20429;-85
2022/09/24 10:37:22;;;;;;;3.80;3.37;;;20.30;99.90;;;;;;4940845;29;20425;-84
2022/09/24 10:40:12;;;;;;;4.50;2.93;;;20.10;99.90;;;;;;4943632;29;20429;-87
2022/09/24 10:42:40;;;;;;;4.20;3.20;;;19.60;99.90;;;;;;4938297;29;20434;-84
2022/09/24 10:45:13;;;;;;;6.00;2.97;;;19.70;99.90;;;;;;4942494;29;20591;-85
2022/09/24 10:48:13;;;;;;;3.00;2.80;;;19.90;99.90;;;;;;4942934;29;20465;-82
2022/09/24 10:50:53;;;;;;;3.10;2.80;;;19.90;99.90;;;;;;4923413;29;20423;-83
2022/09/24 10:53:26;;;;;;;2.80;2.60;;;19.80;99.90;;;;;;4943396;29;20779;-85
2022/09/24 10:56:10;;;;;;;6.43;3.20;;;19.80;99.90;;;;;;4943218;29;20523;-86
2022/09/24 10:59:02;;;;;;;7.50;3.50;;;20.20;99.90;;;;;;4943125;29;20506;-85
2022/09/24 11:01:53;;;;;;;6.07;3.80;;;20.10;99.90;;;;;;4942778;29;20446;-84
2022/09/24 11:04:35;;;;;;;7.40;3.43;;;20.00;99.90;;;;;;4945257;29;20429;-85
2022/09/24 11:07:22;;;;;;;2.90;2.60;;;20.10;99.90;;;;;;4945313;29;20414;-81
2022/09/24 11:10:03;;;;;;;3.53;2.87;;;20.20;99.90;;;;;;4941722;29;20447;-85
2022/09/24 11:12:58;;;;;;;6.47;4.67;;;20.20;99.90;;;;;;4945402;29;20640;-83
2022/09/24 11:15:49;;;;;;;3.80;3.50;;;20.30;99.90;;;;;;4946339;29;20513;-83
2022/09/24 11:18:31;;;;;;;4.90;3.53;;;19.30;99.90;;;;;;4942022;29;20402;-82
2022/09/24 11:21:20;;;;;;;4.60;3.10;;;18.40;99.90;;;;;;4950793;29;20432;-84
2022/09/24 11:24:15;;;;;;;5.30;3.67;;;18.40;99.90;;;;;;4960367;28;20422;-84
2022/09/24 11:27:06;;;;;;;3.60;3.30;;;18.50;99.90;;;;;;4959303;28;20446;-81
2022/09/24 11:29:53;;;;;;;6.30;3.93;;;18.40;99.90;;;;;;4957757;28;20464;-85
2022/09/24 11:32:32;;;;;;;3.30;2.97;;;18.50;99.90;;;;;;4946198;29;20488;-86
2022/09/24 11:35:28;;;;;;;4.27;3.40;;;18.60;99.90;;;;;;4944802;29;20421;-86
2022/09/24 11:38:02;;;;;;;3.93;3.03;;;18.70;99.90;;;;;;4917990;29;20434;-86
2022/09/24 11:41:15;;;;;;;2.93;2.60;;;18.60;99.90;;;;;;4948873;29;20437;-84
2022/09/24 11:44:15;;;;;;;3.70;2.70;;;18.30;99.90;;;;;;4941711;29;20510;-83
2022/09/24 11:47:11;;;;;;;3.70;2.90;;;18.00;99.90;;;;;;4944214;29;20617;-84
2022/09/24 11:49:59;;;;;;;3.73;3.37;;;18.30;99.90;;;;;;4942861;29;20505;-84
2022/09/24 11:52:43;;;;;;;3.17;2.70;;;18.40;99.90;;;;;;4971539;28;20426;-85
2022/09/24 11:55:10;;;;;;;2.93;2.73;;;18.40;99.90;;;;;;4959025;28;20436;-83
2022/09/24 11:57:49;;;;;;;3.40;2.57;;;18.50;99.90;;;;;;4955764;28;20755;-86
2022/09/24 12:00:19;;;;;;;4.37;3.37;;;18.80;99.90;;;;;;4950869;28;20441;-85
2022/09/24 12:02:48;;;;;;;3.67;2.80;;;18.70;99.90;;;;;;4942041;29;20416;-85
2022/09/24 12:05:42;;;;;;;4.47;3.00;;;18.50;99.90;;;;;;4959481;29;20457;-87
2022/09/24 12:08:38;;;;;;;2.97;2.77;;;18.20;99.90;;;;;;4943560;29;20490;-81
2022/09/24 12:11:29;;;;;;;3.40;2.50;;;18.00;99.90;;;;;;4964178;28;20470;-84
2022/09/24 12:14:20;;;;;;;4.27;3.73;;;17.80;99.90;;;;;;4949930;28;20542;-83
2022/09/24 12:16:53;;;;;;;3.37;2.77;;;17.70;99.90;;;;;;4949718;28;20473;-88
2022/09/24 12:19:26;;;;;;;3.23;2.67;;;17.60;99.90;;;;;;4946414;29;20442;-86
2022/09/24 12:21:55;;;;;;;2.50;2.30;;;17.80;99.90;;;;;;4945535;29;20485;-87
2022/09/24 12:24:41;;;;;;;4.67;3.33;;;18.00;99.90;;;;;;4952807;29;20416;-88
2022/09/24 12:27:16;;;;;;;3.23;2.93;;;18.20;99.90;;;;;;4946294;29;20435;-86
2022/09/24 12:32:53;;;;;;;2.67;2.47;;;18.40;99.90;;;;;;4945731;29;20444;-87
2022/09/24 12:35:24;;;;;;;3.30;3.10;;;18.50;99.90;;;;;;4939211;29;20463;-83
2022/09/24 12:37:59;;;;;;;2.67;2.43;;;18.30;99.90;;;;;;4934018;29;20600;-86
2022/09/24 12:40:42;;;;;;;2.77;2.57;;;18.20;99.90;;;;;;4936576;29;20451;-86
2022/09/24 12:43:40;;;;;;;2.70;2.50;;;18.40;99.90;;;;;;4943510;29;20443;-87
2022/09/24 12:46:19;;;;;;;11.73;3.00;;;18.50;99.90;;;;;;4930947;29;20486;-87
2022/09/24 12:48:51;;;;;;;5.40;4.10;;;18.70;99.90;;;;;;4937003;29;20453;-86
2022/09/24 12:51:21;;;;;;;3.83;3.43;;;18.70;99.90;;;;;;4933256;29;20422;-86
2022/09/24 12:53:58;;;;;;;3.80;3.43;;;18.60;99.90;;;;;;4933564;29;20473;-85
2022/09/24 12:56:28;;;;;;;2.80;2.60;;;18.80;99.90;;;;;;4939218;29;20701;-84
2022/09/24 12:58:56;;;;;;;4.87;2.60;;;18.90;99.90;;;;;;4938394;29;20442;-87
2022/09/24 13:01:23;;;;;;;3.13;2.80;;;18.90;99.90;;;;;;4950233;28;20555;-84
2022/09/24 13:04:01;;;;;;;4.90;2.83;;;19.00;99.90;;;;;;4928273;29;20494;-85
2022/09/24 13:06:36;;;;;;;3.53;3.13;;;19.00;99.90;;;;;;4941774;28;20424;-86
2022/09/24 13:09:28;;;;;;;3.93;2.80;;;19.20;99.90;;;;;;4939109;29;20742;-87
2022/09/24 13:12:19;;;;;;;2.30;2.10;;;19.00;99.90;;;;;;4945060;29;20618;-86
2022/09/24 13:15:01;;;;;;;3.80;2.83;;;19.00;99.90;;;;;;4946779;29;20466;-86
2022/09/24 13:17:33;;;;;;;3.93;2.83;;;19.10;99.90;;;;;;4949210;29;20492;-85
2022/09/24 13:20:05;;;;;;;4.00;2.90;;;19.30;99.90;;;;;;4948877;29;20461;-85
2022/09/24 13:22:36;;;;;;;5.03;3.13;;;19.40;99.90;;;;;;4945385;29;20455;-87
2022/09/24 13:25:06;;;;;;;2.47;2.27;;;19.50;99.90;;;;;;4938066;29;20502;-86
2022/09/24 13:27:38;;;;;;;2.47;2.27;;;19.50;99.90;;;;;;4941167;29;21020;-86
2022/09/24 13:30:09;;;;;;;3.73;2.70;;;19.30;99.90;;;;;;4937952;29;20455;-86
2022/09/24 13:32:42;;;;;;;3.20;3.00;;;19.30;99.90;;;;;;4938237;29;20421;-85
2022/09/24 13:35:15;;;;;;;3.33;3.10;;;18.60;99.90;;;;;;4936196;29;20520;-85
2022/09/24 13:37:54;;;;;;;2.93;2.47;;;18.20;99.90;;;;;;4938704;29;20533;-86
2022/09/24 13:40:26;;;;;;;9.73;3.20;;;17.90;99.90;;;;;;4938620;29;20446;-85
2022/09/24 13:43:02;;;;;;;3.47;2.83;;;17.80;99.90;;;;;;4936029;29;21099;-87
2022/09/24 13:45:31;;;;;;;2.30;2.20;;;17.70;99.90;;;;;;4946200;29;20416;-84
2022/09/24 13:48:03;;;;;;;3.60;3.30;;;17.60;99.90;;;;;;4946046;29;20446;-82
2022/09/24 13:50:36;;;;;;;2.77;2.57;;;17.60;99.90;;;;;;4953518;28;20413;-79